Time;durP1;ratioP1;P1;durP2;ratioP2;P2;SDS_P1;SDS_P2;PMS_P1;PMS_P2;Temp;Humidity;BMP_temperature;BMP_pressure;BME280_temperature;BME280_humidity;BME280_pressure;Samples;Min_cycle;Max_cycle;Signal;HPM_P1;HPM_P2
2023/05/20 00:01:25;;;;;;;0.98;0.80;;;;;;;;;;5029336;28;20049;-63
2023/05/20 00:03:53;;;;;;;2.97;1.30;;;;;;;;;;5025801;28;20054;-62
2023/05/20 00:06:22;;;;;;;1.55;0.85;;;;;;;;;;5029044;28;20114;-62
2023/05/20 00:08:50;;;;;;;1.27;0.93;;;;;;;;;;5029745;28;20053;-62
2023/05/20 00:11:18;;;;;;;1.42;0.80;;;;;;;;;;5014468;28;20123;-61
2023/05/20 00:13:47;;;;;;;5.97;1.30;;;;;;;;;;5024395;28;20061;-61
2023/05/20 00:16:16;;;;;;;0.60;0.60;;;;;;;;;;5041832;28;20107;-62
2023/05/20 00:18:45;;;;;;;1.27;0.75;;;;;;;;;;5049759;28;20052;-61
2023/05/20 00:21:13;;;;;;;1.38;0.70;;;;;;;;;;5047668;28;20044;-63
2023/05/20 00:23:42;;;;;;;1.48;1.08;;;;;;;;;;5039789;28;20428;-62
2023/05/20 00:26:10;;;;;;;2.25;0.88;;;;;;;;;;5036298;28;20103;-61
2023/05/20 00:28:39;;;;;;;2.38;0.95;;;;;;;;;;5026502;28;20237;-61
2023/05/20 00:31:07;;;;;;;1.48;1.02;;;;;;;;;;5028686;28;20099;-63
2023/05/20 00:33:37;;;;;;;1.40;0.80;;;;;;;;;;5024131;28;20045;-62
2023/05/20 00:36:05;;;;;;;1.90;1.00;;;;;;;;;;5039369;28;20056;-62
2023/05/20 00:38:34;;;;;;;0.88;0.60;;;;;;;;;;5046603;28;20077;-62
2023/05/20 00:41:02;;;;;;;1.48;1.05;;;;;;;;;;5047516;28;20049;-65
2023/05/20 00:43:30;;;;;;;9.68;0.90;;;;;;;;;;5047616;28;20053;-61
2023/05/20 00:45:59;;;;;;;0.93;0.60;;;;;;;;;;5046274;28;20068;-61
2023/05/20 00:48:30;;;;;;;1.00;0.68;;;;;;;;;;5047853;28;20049;-62
2023/05/20 00:51:01;;;;;;;2.58;1.50;;;;;;;;;;5044227;28;20072;-61
2023/05/20 00:53:29;;;;;;;4.65;1.15;;;;;;;;;;5044702;28;20159;-66
2023/05/20 00:55:58;;;;;;;5.78;1.95;;;;;;;;;;5036711;28;20045;-61
2023/05/20 00:58:26;;;;;;;3.28;1.30;;;;;;;;;;5028230;28;20053;-61
2023/05/20 01:00:55;;;;;;;2.45;1.13;;;;;;;;;;5027029;28;20553;-63
2023/05/20 01:03:24;;;;;;;4.45;1.90;;;;;;;;;;5019456;22;20150;-67
2023/05/20 01:05:53;;;;;;;3.78;2.10;;;;;;;;;;4992618;28;20050;-64
2023/05/20 01:08:23;;;;;;;2.72;1.30;;;;;;;;;;4993564;28;20100;-65
2023/05/20 01:10:53;;;;;;;3.03;1.73;;;;;;;;;;4994004;28;20050;-64
2023/05/20 01:13:24;;;;;;;4.75;1.25;;;;;;;;;;4994194;28;20077;-65
2023/05/20 01:15:54;;;;;;;4.90;1.67;;;;;;;;;;4993933;28;20046;-65
2023/05/20 01:18:24;;;;;;;3.30;1.17;;;;;;;;;;4993822;28;20439;-64
2023/05/20 01:20:54;;;;;;;3.55;1.40;;;;;;;;;;4993134;28;20053;-65
2023/05/20 01:23:24;;;;;;;3.38;1.67;;;;;;;;;;4993422;28;20069;-64
2023/05/20 01:25:52;;;;;;;2.17;1.02;;;;;;;;;;4997134;28;20049;-64
2023/05/20 01:28:21;;;;;;;2.70;1.23;;;;;;;;;;4997944;28;20110;-64
2023/05/20 01:30:51;;;;;;;1.52;0.80;;;;;;;;;;4996993;28;20049;-64
2023/05/20 01:33:20;;;;;;;1.73;1.00;;;;;;;;;;4987030;28;20050;-64
2023/05/20 01:35:49;;;;;;;2.72;1.50;;;;;;;;;;4990925;28;20109;-64
2023/05/20 01:38:19;;;;;;;1.77;0.88;;;;;;;;;;4988180;28;20554;-65
2023/05/20 01:40:50;;;;;;;2.67;1.52;;;;;;;;;;4992643;28;20081;-65
2023/05/20 01:43:18;;;;;;;3.08;1.63;;;;;;;;;;4983562;28;20165;-68
2023/05/20 01:45:47;;;;;;;3.90;1.45;;;;;;;;;;5006113;28;20041;-64
2023/05/20 01:48:15;;;;;;;4.78;2.20;;;;;;;;;;5026584;28;20184;-66
2023/05/20 01:50:44;;;;;;;4.00;1.77;;;;;;;;;;5026429;28;20129;-66
2023/05/20 01:53:12;;;;;;;3.20;1.85;;;;;;;;;;5030670;28;20475;-64
2023/05/20 01:55:40;;;;;;;2.22;1.40;;;;;;;;;;5039459;28;20560;-65
2023/05/20 01:58:10;;;;;;;1.83;1.20;;;;;;;;;;5030823;28;20360;-64
2023/05/20 02:00:39;;;;;;;2.65;1.67;;;;;;;;;;5033542;28;20402;-64
2023/05/20 02:03:07;;;;;;;4.95;1.73;;;;;;;;;;5028238;28;20045;-64
2023/05/20 02:05:36;;;;;;;3.15;1.67;;;;;;;;;;5035476;28;20483;-67
2023/05/20 02:08:05;;;;;;;1.88;0.80;;;;;;;;;;5026233;28;20049;-64
2023/05/20 02:10:34;;;;;;;2.83;1.05;;;;;;;;;;5032013;28;20314;-64
2023/05/20 02:13:02;;;;;;;1.73;1.02;;;;;;;;;;5029930;28;20387;-65
2023/05/20 02:15:32;;;;;;;3.55;1.50;;;;;;;;;;5031838;28;20057;-64
2023/05/20 02:18:01;;;;;;;3.35;1.80;;;;;;;;;;5024207;28;20045;-65
2023/05/20 02:20:29;;;;;;;3.50;1.58;;;;;;;;;;5030385;28;20077;-66
2023/05/20 02:22:58;;;;;;;4.88;2.05;;;;;;;;;;5023748;28;20388;-64
2023/05/20 02:25:26;;;;;;;11.32;1.20;;;;;;;;;;5044918;28;20057;-64
2023/05/20 02:27:55;;;;;;;7.40;1.33;;;;;;;;;;5021624;28;20058;-66
2023/05/20 02:30:23;;;;;;;3.03;1.17;;;;;;;;;;5024655;28;20074;-65
2023/05/20 02:32:53;;;;;;;5.55;1.27;;;;;;;;;;5019885;28;20045;-65
2023/05/20 02:35:21;;;;;;;2.50;1.33;;;;;;;;;;5035002;28;20049;-64
2023/05/20 02:37:50;;;;;;;2.83;1.90;;;;;;;;;;5023581;28;20053;-64
2023/05/20 02:40:18;;;;;;;3.25;1.05;;;;;;;;;;5040157;28;20499;-64
2023/05/20 02:42:46;;;;;;;3.13;2.03;;;;;;;;;;5021341;28;20050;-64
2023/05/20 02:45:15;;;;;;;2.45;1.48;;;;;;;;;;5022710;28;20046;-64
2023/05/20 02:47:43;;;;;;;1.27;0.98;;;;;;;;;;5020245;28;20135;-65
2023/05/20 02:50:13;;;;;;;2.90;1.50;;;;;;;;;;5027783;28;20056;-64
2023/05/20 02:52:42;;;;;;;3.00;1.50;;;;;;;;;;5029523;28;20049;-65
2023/05/20 02:55:10;;;;;;;1.25;0.82;;;;;;;;;;5037916;28;20111;-64
2023/05/20 02:57:39;;;;;;;2.17;1.23;;;;;;;;;;5027218;28;20104;-64
2023/05/20 03:00:10;;;;;;;4.07;1.33;;;;;;;;;;5028951;28;20084;-64
2023/05/20 03:02:38;;;;;;;2.30;1.15;;;;;;;;;;5030366;28;20104;-64
2023/05/20 03:05:07;;;;;;;3.28;1.42;;;;;;;;;;5033063;28;20050;-64
2023/05/20 03:07:37;;;;;;;6.95;1.75;;;;;;;;;;5031155;28;20483;-65
2023/05/20 03:10:06;;;;;;;3.35;1.50;;;;;;;;;;5030601;28;20520;-64
2023/05/20 03:12:35;;;;;;;4.28;1.88;;;;;;;;;;5024469;28;20042;-65
2023/05/20 03:15:03;;;;;;;1.25;0.77;;;;;;;;;;5026618;28;20389;-64
2023/05/20 03:17:31;;;;;;;1.92;1.20;;;;;;;;;;5027309;28;20178;-64
2023/05/20 03:20:00;;;;;;;2.05;1.20;;;;;;;;;;5029431;28;20060;-64
2023/05/20 03:22:29;;;;;;;2.47;1.02;;;;;;;;;;5030061;28;20057;-65
2023/05/20 03:24:59;;;;;;;2.53;0.90;;;;;;;;;;5039940;28;20458;-64
2023/05/20 03:27:27;;;;;;;4.28;1.50;;;;;;;;;;5031026;28;20506;-64
2023/05/20 03:29:56;;;;;;;2.60;1.42;;;;;;;;;;5029721;28;20465;-65
2023/05/20 03:32:24;;;;;;;2.30;1.42;;;;;;;;;;5028881;28;20144;-64
2023/05/20 03:34:53;;;;;;;2.55;1.35;;;;;;;;;;5029146;28;20055;-65
2023/05/20 03:37:21;;;;;;;2.53;1.60;;;;;;;;;;5031401;28;20049;-64
2023/05/20 03:39:50;;;;;;;1.00;0.85;;;;;;;;;;5029737;28;20053;-65
2023/05/20 03:42:19;;;;;;;3.72;1.63;;;;;;;;;;5030654;28;20068;-64
2023/05/20 03:44:48;;;;;;;5.60;1.33;;;;;;;;;;5036361;28;20049;-64
2023/05/20 03:47:16;;;;;;;4.03;1.75;;;;;;;;;;5029198;28;20050;-64
2023/05/20 03:49:44;;;;;;;2.28;1.58;;;;;;;;;;5030714;28;20524;-64
2023/05/20 03:52:13;;;;;;;3.05;1.33;;;;;;;;;;5031153;28;20053;-64
2023/05/20 03:54:41;;;;;;;2.90;1.83;;;;;;;;;;5036685;28;20552;-64
2023/05/20 03:57:10;;;;;;;3.20;1.58;;;;;;;;;;5030859;28;20049;-64
2023/05/20 03:59:40;;;;;;;2.63;1.60;;;;;;;;;;5027033;28;20122;-64
2023/05/20 04:02:09;;;;;;;2.47;1.30;;;;;;;;;;5033586;28;20049;-64
2023/05/20 04:04:37;;;;;;;4.15;1.48;;;;;;;;;;5031921;28;20046;-63
2023/05/20 04:07:06;;;;;;;4.78;2.13;;;;;;;;;;5018128;28;20084;-65
2023/05/20 04:09:34;;;;;;;4.13;1.65;;;;;;;;;;5029500;28;20095;-65
2023/05/20 04:12:03;;;;;;;6.05;1.75;;;;;;;;;;5029083;28;20097;-63
2023/05/20 04:14:33;;;;;;;1.70;1.35;;;;;;;;;;5028434;28;20065;-64
2023/05/20 04:17:03;;;;;;;4.07;1.80;;;;;;;;;;5029753;28;20103;-64
2023/05/20 04:19:33;;;;;;;3.75;1.80;;;;;;;;;;5028212;28;20050;-64
2023/05/20 04:22:01;;;;;;;2.97;1.63;;;;;;;;;;5026688;28;20045;-64
2023/05/20 04:24:30;;;;;;;2.65;1.40;;;;;;;;;;5019852;28;20073;-65
2023/05/20 04:26:58;;;;;;;2.55;1.45;;;;;;;;;;5019691;28;20056;-63
2023/05/20 04:29:27;;;;;;;2.45;1.33;;;;;;;;;;5025836;28;20143;-64
2023/05/20 04:31:57;;;;;;;3.65;1.40;;;;;;;;;;5023246;28;20057;-64
2023/05/20 04:34:29;;;;;;;3.60;1.92;;;;;;;;;;5028625;28;21751;-64
2023/05/20 04:36:59;;;;;;;2.17;1.23;;;;;;;;;;5028615;28;20110;-64
2023/05/20 04:39:27;;;;;;;3.03;1.52;;;;;;;;;;5021531;28;20053;-64
2023/05/20 04:41:55;;;;;;;2.60;1.70;;;;;;;;;;5031359;28;20083;-64
2023/05/20 04:44:25;;;;;;;4.53;1.98;;;;;;;;;;5033633;28;20091;-67
2023/05/20 04:46:53;;;;;;;3.63;1.67;;;;;;;;;;5025339;28;20461;-64
2023/05/20 04:49:24;;;;;;;4.07;2.28;;;;;;;;;;5027576;28;20576;-63
2023/05/20 04:51:54;;;;;;;5.43;2.05;;;;;;;;;;5027466;28;20053;-64
2023/05/20 04:54:23;;;;;;;3.95;1.65;;;;;;;;;;5035676;28;20072;-64
2023/05/20 04:56:52;;;;;;;6.50;2.42;;;;;;;;;;5025143;28;20049;-64
2023/05/20 04:59:20;;;;;;;4.47;1.95;;;;;;;;;;5028172;28;20061;-64
2023/05/20 05:01:49;;;;;;;6.90;1.98;;;;;;;;;;5026770;28;20041;-64
2023/05/20 05:04:17;;;;;;;4.97;2.05;;;;;;;;;;5026426;28;20049;-64
2023/05/20 05:06:46;;;;;;;5.22;2.80;;;;;;;;;;5023941;28;20548;-64
2023/05/20 05:09:15;;;;;;;5.32;2.25;;;;;;;;;;5024658;28;20057;-67
2023/05/20 05:11:44;;;;;;;7.00;1.88;;;;;;;;;;5027232;28;20045;-64
2023/05/20 05:14:12;;;;;;;6.97;2.05;;;;;;;;;;5028584;28;20045;-66
2023/05/20 05:16:40;;;;;;;5.40;2.65;;;;;;;;;;5026725;28;20103;-64
2023/05/20 05:19:09;;;;;;;5.75;2.35;;;;;;;;;;5029590;28;20057;-64
2023/05/20 05:21:37;;;;;;;5.15;2.67;;;;;;;;;;5018311;28;20092;-64
2023/05/20 05:24:06;;;;;;;8.95;2.13;;;;;;;;;;5031767;28;20441;-65
2023/05/20 05:26:36;;;;;;;6.13;2.83;;;;;;;;;;5030782;28;20457;-64
2023/05/20 05:29:04;;;;;;;5.82;2.60;;;;;;;;;;5025971;28;20042;-65
2023/05/20 05:31:32;;;;;;;5.20;2.60;;;;;;;;;;5031529;28;20064;-64
2023/05/20 05:34:01;;;;;;;5.65;2.90;;;;;;;;;;5026345;28;20046;-65
2023/05/20 05:36:30;;;;;;;10.02;3.22;;;;;;;;;;5028609;28;20050;-64
2023/05/20 05:38:58;;;;;;;8.85;3.00;;;;;;;;;;5028506;28;20045;-64
2023/05/20 05:41:27;;;;;;;5.80;2.13;;;;;;;;;;5028610;28;20056;-64
2023/05/20 05:43:56;;;;;;;9.23;2.42;;;;;;;;;;5028809;28;20494;-64
2023/05/20 05:46:25;;;;;;;5.57;2.85;;;;;;;;;;5044394;28;20057;-64
2023/05/20 05:48:53;;;;;;;6.95;2.40;;;;;;;;;;5029622;28;20054;-64
2023/05/20 05:51:23;;;;;;;6.88;2.50;;;;;;;;;;5026707;28;20049;-65
2023/05/20 05:53:52;;;;;;;7.07;2.72;;;;;;;;;;5030730;28;20095;-64
2023/05/20 05:56:20;;;;;;;8.27;2.42;;;;;;;;;;5030078;28;20057;-64
2023/05/20 05:58:48;;;;;;;5.00;2.25;;;;;;;;;;5019316;28;20041;-65
2023/05/20 06:01:18;;;;;;;5.47;2.25;;;;;;;;;;5036911;28;20517;-64
2023/05/20 06:03:47;;;;;;;5.53;2.33;;;;;;;;;;5027383;28;20743;-65
2023/05/20 06:06:15;;;;;;;6.95;2.17;;;;;;;;;;5024122;28;20169;-64
2023/05/20 06:08:43;;;;;;;3.53;1.95;;;;;;;;;;5020075;28;20563;-64
2023/05/20 06:11:12;;;;;;;6.32;2.05;;;;;;;;;;5020569;28;20140;-64
2023/05/20 06:13:40;;;;;;;8.98;2.78;;;;;;;;;;5017943;28;20056;-65
2023/05/20 06:16:09;;;;;;;6.35;2.50;;;;;;;;;;5029486;28;20288;-63
2023/05/20 06:18:39;;;;;;;7.05;2.92;;;;;;;;;;5029068;28;20061;-64
2023/05/20 06:21:07;;;;;;;4.90;2.65;;;;;;;;;;5027744;28;20413;-65
2023/05/20 06:23:36;;;;;;;4.47;1.88;;;;;;;;;;5024637;28;20050;-64
2023/05/20 06:26:04;;;;;;;3.83;1.77;;;;;;;;;;5028449;28;20077;-65
2023/05/20 06:28:33;;;;;;;5.35;2.53;;;;;;;;;;5025138;28;20103;-64
2023/05/20 06:31:01;;;;;;;8.27;3.15;;;;;;;;;;5027478;28;20048;-65
2023/05/20 06:33:30;;;;;;;4.25;2.03;;;;;;;;;;5021285;28;20345;-65
2023/05/20 06:36:00;;;;;;;7.38;2.33;;;;;;;;;;5028783;28;20692;-65
2023/05/20 06:38:29;;;;;;;4.93;2.28;;;;;;;;;;5024844;28;20046;-64
2023/05/20 06:40:57;;;;;;;4.70;2.63;;;;;;;;;;5024509;28;20046;-64
2023/05/20 06:43:26;;;;;;;7.07;2.15;;;;;;;;;;5028737;28;20839;-64
2023/05/20 06:45:54;;;;;;;5.63;2.75;;;;;;;;;;5029250;28;20523;-64
2023/05/20 06:48:22;;;;;;;7.65;3.05;;;;;;;;;;5025308;28;20056;-66
2023/05/20 06:50:51;;;;;;;6.82;2.63;;;;;;;;;;5019543;28;20045;-65
2023/05/20 06:53:21;;;;;;;8.93;3.03;;;;;;;;;;5023614;28;20049;-63
2023/05/20 06:55:49;;;;;;;5.88;2.55;;;;;;;;;;5027225;28;20054;-64
2023/05/20 06:58:18;;;;;;;5.50;2.08;;;;;;;;;;5026678;28;20058;-66
2023/05/20 07:00:47;;;;;;;5.40;2.22;;;;;;;;;;5023726;28;20111;-64
2023/05/20 07:03:15;;;;;;;7.38;3.03;;;;;;;;;;5026975;28;20061;-65
2023/05/20 07:05:44;;;;;;;5.50;2.47;;;;;;;;;;5025480;28;20140;-64
2023/05/20 07:08:12;;;;;;;7.40;3.17;;;;;;;;;;5023877;28;20127;-65
2023/05/20 07:10:42;;;;;;;6.50;2.70;;;;;;;;;;5028615;28;20104;-65
2023/05/20 07:13:10;;;;;;;7.90;3.83;;;;;;;;;;5024800;28;20053;-65
2023/05/20 07:15:39;;;;;;;6.85;2.83;;;;;;;;;;5019201;28;20049;-65
2023/05/20 07:18:07;;;;;;;6.18;2.70;;;;;;;;;;5020931;28;20068;-64
2023/05/20 07:20:36;;;;;;;5.93;2.58;;;;;;;;;;5023993;28;20534;-64
2023/05/20 07:23:04;;;;;;;8.45;2.92;;;;;;;;;;5032275;28;20080;-65
2023/05/20 07:25:33;;;;;;;5.65;2.25;;;;;;;;;;5027978;28;20597;-66
2023/05/20 07:28:03;;;;;;;8.15;3.08;;;;;;;;;;5024673;28;20924;-66
2023/05/20 07:30:31;;;;;;;6.78;2.70;;;;;;;;;;5025125;28;20445;-65
2023/05/20 07:33:00;;;;;;;6.95;2.47;;;;;;;;;;5024494;28;20513;-62
2023/05/20 07:35:28;;;;;;;3.88;2.45;;;;;;;;;;5029809;28;20057;-64
2023/05/20 07:37:56;;;;;;;5.85;2.97;;;;;;;;;;5026791;28;20052;-65
2023/05/20 07:40:25;;;;;;;8.20;2.85;;;;;;;;;;5027386;28;20060;-65
2023/05/20 07:42:53;;;;;;;5.38;2.35;;;;;;;;;;5025318;28;20081;-61
2023/05/20 07:45:23;;;;;;;6.78;2.28;;;;;;;;;;5022607;28;20065;-62
2023/05/20 07:47:51;;;;;;;8.00;2.90;;;;;;;;;;5031554;28;20049;-64
2023/05/20 07:50:20;;;;;;;4.38;2.22;;;;;;;;;;5028065;28;20490;-64
2023/05/20 07:52:48;;;;;;;3.78;1.98;;;;;;;;;;5027161;28;20080;-64
2023/05/20 07:55:24;;;;;;;4.53;2.00;;;;;;;;;;5035014;28;20057;-64
2023/05/20 07:57:52;;;;;;;5.10;2.22;;;;;;;;;;5025579;28;20099;-63
2023/05/20 08:00:21;;;;;;;4.95;2.05;;;;;;;;;;5025373;28;20113;-64
2023/05/20 08:02:50;;;;;;;4.20;2.08;;;;;;;;;;5025533;28;20085;-64
2023/05/20 08:05:21;;;;;;;3.35;1.63;;;;;;;;;;5029013;28;20409;-64
2023/05/20 08:07:49;;;;;;;4.47;2.25;;;;;;;;;;5027667;28;20132;-64
2023/05/20 08:10:18;;;;;;;3.75;1.67;;;;;;;;;;5035840;28;20049;-65
2023/05/20 08:12:47;;;;;;;3.28;1.83;;;;;;;;;;5022481;28;20103;-63
2023/05/20 08:15:15;;;;;;;3.53;1.60;;;;;;;;;;5030659;28;20442;-63
2023/05/20 08:17:44;;;;;;;3.40;1.80;;;;;;;;;;5026125;28;20383;-65
2023/05/20 08:20:14;;;;;;;6.53;1.92;;;;;;;;;;5028749;28;20045;-63
2023/05/20 08:22:42;;;;;;;6.13;2.25;;;;;;;;;;5018657;28;20126;-64
2023/05/20 08:25:11;;;;;;;9.65;2.40;;;;;;;;;;5037492;28;20572;-64
2023/05/20 08:27:41;;;;;;;4.35;1.63;;;;;;;;;;5030259;28;20041;-64
2023/05/20 08:30:10;;;;;;;3.70;1.75;;;;;;;;;;5030091;28;20053;-64
2023/05/20 08:32:38;;;;;;;3.22;1.88;;;;;;;;;;5028416;28;20068;-64
2023/05/20 08:35:08;;;;;;;5.35;2.30;;;;;;;;;;5036767;28;20395;-64
2023/05/20 08:37:37;;;;;;;2.85;1.63;;;;;;;;;;5028945;28;20087;-64
2023/05/20 08:40:08;;;;;;;4.00;2.17;;;;;;;;;;5030314;28;20056;-65
2023/05/20 08:42:37;;;;;;;2.65;1.95;;;;;;;;;;5030329;28;20049;-64
2023/05/20 08:45:05;;;;;;;3.28;1.80;;;;;;;;;;5036467;28;20379;-64
2023/05/20 08:47:34;;;;;;;2.78;1.20;;;;;;;;;;5028458;28;20049;-65
2023/05/20 08:50:02;;;;;;;3.38;1.50;;;;;;;;;;5027618;28;20106;-64
2023/05/20 08:52:32;;;;;;;2.60;1.23;;;;;;;;;;5025684;28;20076;-64
2023/05/20 08:55:03;;;;;;;4.75;2.00;;;;;;;;;;5030136;28;20486;-64
2023/05/20 08:57:32;;;;;;;5.45;1.88;;;;;;;;;;5027371;28;20045;-63
2023/05/20 09:00:03;;;;;;;2.22;1.08;;;;;;;;;;5023826;28;20049;-63
2023/05/20 09:02:33;;;;;;;2.80;1.52;;;;;;;;;;5023923;28;20100;-63
2023/05/20 09:05:01;;;;;;;2.72;1.33;;;;;;;;;;5037172;28;20136;-62
2023/05/20 09:07:30;;;;;;;5.28;1.52;;;;;;;;;;5025566;28;20132;-62
2023/05/20 09:09:58;;;;;;;1.63;1.40;;;;;;;;;;5024749;28;20107;-65
2023/05/20 09:12:28;;;;;;;2.30;1.23;;;;;;;;;;5018712;28;20058;-62
2023/05/20 09:14:56;;;;;;;2.97;1.55;;;;;;;;;;5021577;28;20045;-62
2023/05/20 09:17:25;;;;;;;2.25;1.20;;;;;;;;;;5025027;28;20494;-63
2023/05/20 09:19:53;;;;;;;2.88;1.45;;;;;;;;;;5023965;28;20132;-64
2023/05/20 09:22:25;;;;;;;2.97;0.75;;;;;;;;;;5021691;28;20077;-63
2023/05/20 09:24:53;;;;;;;1.35;1.10;;;;;;;;;;5031287;28;20081;-62
2023/05/20 09:27:22;;;;;;;2.00;1.70;;;;;;;;;;5027729;28;20399;-62
2023/05/20 09:29:52;;;;;;;2.88;1.25;;;;;;;;;;5034418;28;20050;-61
2023/05/20 09:32:23;;;;;;;2.75;1.10;;;;;;;;;;5026884;28;20518;-64
2023/05/20 09:34:51;;;;;;;2.08;1.02;;;;;;;;;;5027231;28;20048;-64
2023/05/20 09:37:22;;;;;;;2.08;1.38;;;;;;;;;;5020816;28;20441;-63
2023/05/20 09:39:58;;;;;;;1.55;1.13;;;;;;;;;;5020347;28;20045;-65
2023/05/20 09:42:27;;;;;;;2.72;1.50;;;;;;;;;;5025029;28;20155;-65
2023/05/20 09:44:58;;;;;;;1.60;1.20;;;;;;;;;;5027428;28;20049;-64
2023/05/20 09:47:27;;;;;;;2.55;1.02;;;;;;;;;;5030647;28;20494;-65
2023/05/20 09:49:57;;;;;;;3.50;1.75;;;;;;;;;;5032302;28;20049;-66
2023/05/20 09:52:27;;;;;;;2.63;1.20;;;;;;;;;;5032071;28;20048;-66
2023/05/20 09:54:56;;;;;;;4.15;1.00;;;;;;;;;;5041956;28;20084;-65
2023/05/20 09:57:25;;;;;;;2.85;1.40;;;;;;;;;;5033778;28;20524;-65
2023/05/20 09:59:53;;;;;;;6.00;1.50;;;;;;;;;;5020378;28;20042;-66
2023/05/20 10:02:23;;;;;;;2.63;1.30;;;;;;;;;;5019886;28;20117;-66
2023/05/20 10:04:53;;;;;;;1.60;0.88;;;;;;;;;;5035006;28;20414;-65
2023/05/20 10:07:32;;;;;;;2.15;0.88;;;;;;;;;;5032184;28;20049;-65
2023/05/20 10:10:14;;;;;;;2.67;1.13;;;;;;;;;;5035179;28;20516;-66
2023/05/20 10:12:46;;;;;;;3.72;2.05;;;;;;;;;;5022184;28;20084;-65
2023/05/20 10:15:17;;;;;;;5.45;1.38;;;;;;;;;;5030815;28;20143;-65
2023/05/20 10:17:52;;;;;;;2.30;1.40;;;;;;;;;;5031568;28;20041;-66
2023/05/20 10:20:20;;;;;;;2.03;1.33;;;;;;;;;;5032552;28;20532;-67
2023/05/20 10:22:57;;;;;;;2.28;1.52;;;;;;;;;;5030864;28;20057;-66
2023/05/20 10:25:26;;;;;;;2.58;1.00;;;;;;;;;;5027861;28;20045;-66
2023/05/20 10:28:06;;;;;;;2.45;1.40;;;;;;;;;;5032043;28;20514;-66
2023/05/20 10:30:35;;;;;;;2.00;1.30;;;;;;;;;;5031840;28;20442;-66
2023/05/20 10:33:06;;;;;;;2.75;1.27;;;;;;;;;;5031972;28;20050;-66
2023/05/20 10:35:35;;;;;;;2.65;1.05;;;;;;;;;;5044720;28;20424;-66
2023/05/20 10:38:10;;;;;;;3.00;1.80;;;;;;;;;;5018812;28;20046;-63
2023/05/20 10:40:39;;;;;;;1.52;1.17;;;;;;;;;;5022943;28;20054;-67
2023/05/20 10:43:10;;;;;;;2.10;1.52;;;;;;;;;;5027335;28;20441;-64
2023/05/20 10:45:49;;;;;;;2.15;1.23;;;;;;;;;;5035109;28;20052;-69
2023/05/20 10:48:24;;;;;;;2.28;1.13;;;;;;;;;;5027010;28;20557;-69
2023/05/20 10:50:55;;;;;;;0.88;0.88;;;;;;;;;;5024612;28;20513;-69
2023/05/20 10:53:24;;;;;;;3.20;0.93;;;;;;;;;;5030880;28;21434;-69
2023/05/20 10:56:01;;;;;;;1.52;0.75;;;;;;;;;;5026209;28;20038;-68
2023/05/20 10:58:37;;;;;;;1.98;0.98;;;;;;;;;;5023756;28;20052;-65
2023/05/20 11:01:05;;;;;;;1.92;1.05;;;;;;;;;;5021033;28;20042;-68
2023/05/20 11:03:35;;;;;;;1.67;1.00;;;;;;;;;;5028295;28;20061;-67
2023/05/20 11:06:11;;;;;;;2.65;1.15;;;;;;;;;;5029815;28;20498;-67
2023/05/20 11:08:40;;;;;;;2.40;1.13;;;;;;;;;;5024847;28;20060;-67
2023/05/20 11:11:08;;;;;;;2.17;1.05;;;;;;;;;;5030428;28;20092;-67
2023/05/20 11:13:36;;;;;;;1.52;1.02;;;;;;;;;;5025885;28;20487;-67
2023/05/20 11:16:05;;;;;;;3.63;1.05;;;;;;;;;;5033685;28;20091;-67
2023/05/20 11:18:35;;;;;;;1.30;1.00;;;;;;;;;;5030588;28;20526;-67
2023/05/20 11:21:04;;;;;;;2.42;0.95;;;;;;;;;;5024563;28;20053;-67
2023/05/20 11:23:32;;;;;;;1.33;0.95;;;;;;;;;;5028417;28;20111;-67
2023/05/20 11:26:02;;;;;;;2.33;1.23;;;;;;;;;;5030493;28;20111;-70
2023/05/20 11:28:31;;;;;;;2.00;1.45;;;;;;;;;;5026991;28;20049;-69
2023/05/20 11:31:00;;;;;;;3.40;1.25;;;;;;;;;;5024463;28;20051;-67
2023/05/20 11:33:30;;;;;;;1.75;0.90;;;;;;;;;;5025189;28;20521;-70
2023/05/20 11:36:00;;;;;;;2.88;1.20;;;;;;;;;;5030472;28;20099;-69
2023/05/20 11:38:30;;;;;;;1.63;0.98;;;;;;;;;;5026590;28;20057;-70
2023/05/20 11:40:59;;;;;;;2.50;1.08;;;;;;;;;;5029367;28;20476;-70
2023/05/20 11:43:27;;;;;;;1.83;1.05;;;;;;;;;;5026321;28;20053;-70
2023/05/20 11:45:58;;;;;;;1.98;1.40;;;;;;;;;;5024733;28;20068;-69
2023/05/20 11:48:27;;;;;;;2.10;1.23;;;;;;;;;;5023586;28;20045;-70
2023/05/20 11:50:56;;;;;;;3.33;1.30;;;;;;;;;;5024538;28;20046;-69
2023/05/20 11:53:28;;;;;;;1.52;0.98;;;;;;;;;;5023972;28;20407;-70
2023/05/20 11:55:57;;;;;;;1.88;1.20;;;;;;;;;;5039095;28;20114;-68
2023/05/20 11:58:26;;;;;;;2.42;1.10;;;;;;;;;;5025600;28;20041;-69
2023/05/20 12:00:55;;;;;;;2.65;1.42;;;;;;;;;;5027009;28;20107;-69
2023/05/20 12:03:41;;;;;;;2.30;1.25;;;;;;;;;;5021650;28;20510;-70
2023/05/20 12:06:13;;;;;;;3.75;1.60;;;;;;;;;;5030776;28;20049;-70
2023/05/20 12:08:42;;;;;;;4.18;1.77;;;;;;;;;;5032414;28;20065;-68
2023/05/20 12:11:11;;;;;;;1.77;1.25;;;;;;;;;;5024942;28;20104;-71
2023/05/20 12:13:39;;;;;;;2.55;1.38;;;;;;;;;;5022217;28;20119;-72
2023/05/20 12:16:08;;;;;;;3.90;1.73;;;;;;;;;;5028460;28;20045;-75
2023/05/20 12:18:36;;;;;;;1.05;0.85;;;;;;;;;;5029089;28;20128;-75
2023/05/20 12:21:05;;;;;;;1.55;1.05;;;;;;;;;;5022500;28;20053;-69
2023/05/20 12:23:33;;;;;;;2.80;1.00;;;;;;;;;;5028583;28;20057;-71
2023/05/20 12:26:04;;;;;;;2.97;1.58;;;;;;;;;;5035513;28;20038;-70
2023/05/20 12:28:33;;;;;;;2.95;1.80;;;;;;;;;;5027293;28;20072;-71
2023/05/20 12:31:01;;;;;;;2.75;1.83;;;;;;;;;;5026961;28;20049;-71
2023/05/20 12:33:30;;;;;;;3.35;1.83;;;;;;;;;;5025795;28;20490;-71
2023/05/20 12:35:58;;;;;;;4.35;1.80;;;;;;;;;;5031303;28;20046;-70
2023/05/20 12:38:26;;;;;;;2.95;1.50;;;;;;;;;;5026937;28;20095;-71
2023/05/20 12:40:55;;;;;;;5.15;2.30;;;;;;;;;;5022276;28;20053;-70
2023/05/20 12:43:25;;;;;;;3.75;1.98;;;;;;;;;;5025648;28;20100;-72
2023/05/20 12:45:53;;;;;;;1.52;1.40;;;;;;;;;;5020801;28;20103;-72
2023/05/20 12:48:21;;;;;;;2.85;1.60;;;;;;;;;;5028830;28;20049;-74
2023/05/20 12:50:50;;;;;;;2.33;1.50;;;;;;;;;;5028086;28;20046;-74
2023/05/20 12:53:18;;;;;;;2.40;1.63;;;;;;;;;;5018541;28;20088;-74
2023/05/20 12:55:46;;;;;;;3.50;2.00;;;;;;;;;;5032746;28;20103;-74
2023/05/20 12:58:15;;;;;;;3.95;1.98;;;;;;;;;;5027497;28;20053;-73
2023/05/20 13:00:45;;;;;;;3.08;2.03;;;;;;;;;;5022715;28;20132;-72
2023/05/20 13:03:13;;;;;;;1.85;0.98;;;;;;;;;;5023968;28;20053;-71
2023/05/20 13:05:42;;;;;;;3.03;1.70;;;;;;;;;;5034942;28;20037;-71
2023/05/20 13:08:11;;;;;;;2.42;1.40;;;;;;;;;;5024968;28;20487;-72
2023/05/20 13:10:40;;;;;;;3.10;2.20;;;;;;;;;;5029078;28;20053;-69
2023/05/20 13:13:08;;;;;;;2.33;1.38;;;;;;;;;;5027053;28;20490;-72
2023/05/20 13:15:37;;;;;;;4.30;2.05;;;;;;;;;;5032534;28;20421;-70
2023/05/20 13:18:07;;;;;;;2.92;1.27;;;;;;;;;;5022420;28;20465;-71
2023/05/20 13:20:35;;;;;;;3.47;2.00;;;;;;;;;;5026556;28;20045;-68
2023/05/20 13:23:04;;;;;;;2.75;1.73;;;;;;;;;;5033775;28;20053;-68
2023/05/20 13:25:32;;;;;;;3.10;1.85;;;;;;;;;;5033754;28;20115;-68
2023/05/20 13:28:01;;;;;;;4.22;1.85;;;;;;;;;;5032980;28;20434;-69
2023/05/20 13:30:29;;;;;;;1.50;1.38;;;;;;;;;;5031148;28;20596;-66
2023/05/20 13:32:57;;;;;;;2.88;1.50;;;;;;;;;;5027716;28;20069;-67
2023/05/20 13:35:27;;;;;;;3.65;2.25;;;;;;;;;;5027838;28;20049;-68
2023/05/20 13:37:56;;;;;;;4.45;1.80;;;;;;;;;;5033180;28;20379;-68
2023/05/20 13:40:24;;;;;;;1.83;1.27;;;;;;;;;;5033563;28;20583;-67
2023/05/20 13:42:52;;;;;;;3.00;1.70;;;;;;;;;;5033014;28;20077;-68
2023/05/20 13:45:22;;;;;;;4.93;1.83;;;;;;;;;;5031693;28;20060;-68
2023/05/20 13:47:50;;;;;;;2.40;1.77;;;;;;;;;;5031939;28;20217;-68
2023/05/20 13:50:18;;;;;;;3.50;1.70;;;;;;;;;;5033853;28;20133;-67
2023/05/20 13:52:49;;;;;;;4.10;2.50;;;;;;;;;;5034852;28;20041;-68
2023/05/20 13:55:17;;;;;;;4.10;1.67;;;;;;;;;;5037604;28;20077;-68
2023/05/20 13:57:46;;;;;;;4.22;1.63;;;;;;;;;;5033218;28;20053;-68
2023/05/20 14:00:15;;;;;;;3.90;2.33;;;;;;;;;;5031138;28;20053;-68
2023/05/20 14:02:43;;;;;;;5.82;2.10;;;;;;;;;;5031467;28;20457;-68
2023/05/20 14:05:12;;;;;;;4.07;1.88;;;;;;;;;;5031445;28;20045;-67
2023/05/20 14:07:40;;;;;;;3.28;1.80;;;;;;;;;;5031957;28;20077;-67
2023/05/20 14:10:10;;;;;;;6.07;2.45;;;;;;;;;;5023217;28;20042;-68
2023/05/20 14:12:38;;;;;;;3.20;2.15;;;;;;;;;;5023281;28;20045;-68
2023/05/20 14:15:08;;;;;;;3.65;1.77;;;;;;;;;;5033506;28;20084;-69
2023/05/20 14:17:36;;;;;;;3.03;1.70;;;;;;;;;;5044419;28;20449;-68
2023/05/20 14:20:05;;;;;;;5.25;2.03;;;;;;;;;;5030586;28;20049;-68
2023/05/20 14:22:34;;;;;;;6.57;2.47;;;;;;;;;;5024356;28;20042;-69
2023/05/20 14:25:02;;;;;;;5.30;1.95;;;;;;;;;;5023384;28;20054;-70
2023/05/20 14:27:32;;;;;;;3.55;1.67;;;;;;;;;;5039765;28;20053;-67
2023/05/20 14:30:00;;;;;;;5.35;2.40;;;;;;;;;;5026127;28;20073;-66
2023/05/20 14:32:29;;;;;;;3.80;1.90;;;;;;;;;;5020498;28;20045;-66
2023/05/20 14:34:58;;;;;;;5.88;2.08;;;;;;;;;;5031740;28;20153;-67
2023/05/20 14:37:27;;;;;;;7.68;2.10;;;;;;;;;;5039398;28;20494;-67
2023/05/20 14:39:55;;;;;;;5.55;2.47;;;;;;;;;;5031035;28;20049;-67
2023/05/20 14:42:24;;;;;;;4.43;1.88;;;;;;;;;;5032193;28;20042;-67
2023/05/20 14:44:53;;;;;;;3.22;2.03;;;;;;;;;;5030532;28;20184;-67
2023/05/20 14:47:22;;;;;;;3.92;2.30;;;;;;;;;;5031112;28;20053;-67
2023/05/20 14:49:50;;;;;;;4.20;2.28;;;;;;;;;;5031962;28;20053;-67
2023/05/20 14:52:19;;;;;;;4.40;2.25;;;;;;;;;;5019577;28;20099;-66
2023/05/20 14:54:47;;;;;;;3.70;2.33;;;;;;;;;;5029985;28;20045;-67